sensor_id;sensor_type;location;lat;lon;timestamp;P1;durP1;ratioP1;P2;durP2;ratioP2
6463;SDS011;3265;42.694;23.282;2022-12-07T00:00:52;54.50;;;27.63;;
6463;SDS011;3265;42.694;23.282;2022-12-07T00:03:19;56.60;;;29.83;;
6463;SDS011;3265;42.694;23.282;2022-12-07T00:05:46;61.67;;;30.47;;
6463;SDS011;3265;42.694;23.282;2022-12-07T00:08:15;66.97;;;32.70;;
6463;SDS011;3265;42.694;23.282;2022-12-07T00:10:41;68.40;;;32.80;;
6463;SDS011;3265;42.694;23.282;2022-12-07T00:13:08;59.87;;;31.87;;
6463;SDS011;3265;42.694;23.282;2022-12-07T00:15:35;70.83;;;33.27;;
6463;SDS011;3265;42.694;23.282;2022-12-07T00:18:02;71.43;;;33.37;;
6463;SDS011;3265;42.694;23.282;2022-12-07T00:20:29;74.60;;;34.53;;
6463;SDS011;3265;42.694;23.282;2022-12-07T00:22:56;69.10;;;33.07;;
6463;SDS011;3265;42.694;23.282;2022-12-07T00:25:24;71.70;;;33.87;;
6463;SDS011;3265;42.694;23.282;2022-12-07T00:27:51;71.37;;;34.20;;
6463;SDS011;3265;42.694;23.282;2022-12-07T00:30:20;68.93;;;34.80;;
6463;SDS011;3265;42.694;23.282;2022-12-07T00:32:47;67.60;;;33.57;;
6463;SDS011;3265;42.694;23.282;2022-12-07T00:35:14;63.63;;;31.87;;
6463;SDS011;3265;42.694;23.282;2022-12-07T00:37:41;68.00;;;33.13;;
6463;SDS011;3265;42.694;23.282;2022-12-07T00:40:08;69.67;;;33.63;;
6463;SDS011;3265;42.694;23.282;2022-12-07T00:42:37;64.87;;;32.33;;
6463;SDS011;3265;42.694;23.282;2022-12-07T00:45:04;63.40;;;31.03;;
6463;SDS011;3265;42.694;23.282;2022-12-07T00:47:31;60.00;;;29.97;;
6463;SDS011;3265;42.694;23.282;2022-12-07T00:49:58;52.80;;;25.57;;
6463;SDS011;3265;42.694;23.282;2022-12-07T00:52:25;57.77;;;25.57;;
6463;SDS011;3265;42.694;23.282;2022-12-07T00:54:52;51.20;;;24.83;;
6463;SDS011;3265;42.694;23.282;2022-12-07T00:57:19;44.30;;;23.30;;
6463;SDS011;3265;42.694;23.282;2022-12-07T00:59:47;46.13;;;23.97;;
6463;SDS011;3265;42.694;23.282;2022-12-07T01:02:14;45.57;;;23.53;;
6463;SDS011;3265;42.694;23.282;2022-12-07T01:04:41;46.10;;;22.97;;
6463;SDS011;3265;42.694;23.282;2022-12-07T01:07:08;51.73;;;22.97;;
6463;SDS011;3265;42.694;23.282;2022-12-07T01:09:35;48.47;;;23.60;;
6463;SDS011;3265;42.694;23.282;2022-12-07T01:12:02;50.37;;;25.07;;
6463;SDS011;3265;42.694;23.282;2022-12-07T01:14:29;49.20;;;24.37;;
6463;SDS011;3265;42.694;23.282;2022-12-07T01:16:57;45.27;;;24.07;;
6463;SDS011;3265;42.694;23.282;2022-12-07T01:19:24;49.07;;;25.60;;
6463;SDS011;3265;42.694;23.282;2022-12-07T01:21:51;62.30;;;27.23;;
6463;SDS011;3265;42.694;23.282;2022-12-07T01:24:17;59.27;;;29.67;;
6463;SDS011;3265;42.694;23.282;2022-12-07T01:26:44;61.40;;;29.23;;
6463;SDS011;3265;42.694;23.282;2022-12-07T01:29:11;62.53;;;30.17;;
6463;SDS011;3265;42.694;23.282;2022-12-07T01:31:38;60.93;;;29.37;;
6463;SDS011;3265;42.694;23.282;2022-12-07T01:34:06;53.70;;;28.77;;
6463;SDS011;3265;42.694;23.282;2022-12-07T01:36:34;55.80;;;28.20;;
6463;SDS011;3265;42.694;23.282;2022-12-07T01:39:03;52.27;;;25.33;;
6463;SDS011;3265;42.694;23.282;2022-12-07T01:41:33;48.97;;;26.37;;
6463;SDS011;3265;42.694;23.282;2022-12-07T01:44:09;50.87;;;26.20;;
6463;SDS011;3265;42.694;23.282;2022-12-07T01:46:38;48.43;;;26.03;;
6463;SDS011;3265;42.694;23.282;2022-12-07T01:49:08;49.20;;;25.13;;
6463;SDS011;3265;42.694;23.282;2022-12-07T01:51:38;42.20;;;22.80;;
6463;SDS011;3265;42.694;23.282;2022-12-07T01:54:08;44.77;;;21.83;;
6463;SDS011;3265;42.694;23.282;2022-12-07T01:56:37;40.63;;;22.53;;
6463;SDS011;3265;42.694;23.282;2022-12-07T01:59:07;45.23;;;22.97;;
6463;SDS011;3265;42.694;23.282;2022-12-07T02:01:34;43.67;;;21.17;;
6463;SDS011;3265;42.694;23.282;2022-12-07T02:04:01;42.40;;;22.00;;
6463;SDS011;3265;42.694;23.282;2022-12-07T02:06:30;42.57;;;23.10;;
6463;SDS011;3265;42.694;23.282;2022-12-07T02:08:58;55.53;;;24.33;;
6463;SDS011;3265;42.694;23.282;2022-12-07T02:11:24;43.33;;;24.23;;
6463;SDS011;3265;42.694;23.282;2022-12-07T02:13:51;48.00;;;25.97;;
6463;SDS011;3265;42.694;23.282;2022-12-07T02:16:22;49.50;;;25.43;;
6463;SDS011;3265;42.694;23.282;2022-12-07T02:18:59;54.67;;;27.33;;
6463;SDS011;3265;42.694;23.282;2022-12-07T02:21:52;64.13;;;31.83;;
6463;SDS011;3265;42.694;23.282;2022-12-07T02:24:37;70.60;;;34.10;;
6463;SDS011;3265;42.694;23.282;2022-12-07T02:27:23;64.20;;;34.10;;
6463;SDS011;3265;42.694;23.282;2022-12-07T02:30:03;62.97;;;32.87;;
6463;SDS011;3265;42.694;23.282;2022-12-07T02:32:35;64.87;;;33.67;;
6463;SDS011;3265;42.694;23.282;2022-12-07T02:35:09;64.00;;;33.10;;
6463;SDS011;3265;42.694;23.282;2022-12-07T02:37:42;60.87;;;31.70;;
6463;SDS011;3265;42.694;23.282;2022-12-07T02:40:16;61.50;;;32.33;;
6463;SDS011;3265;42.694;23.282;2022-12-07T02:42:49;62.60;;;31.67;;
6463;SDS011;3265;42.694;23.282;2022-12-07T02:45:23;57.50;;;29.20;;
6463;SDS011;3265;42.694;23.282;2022-12-07T02:47:53;56.50;;;28.97;;
6463;SDS011;3265;42.694;23.282;2022-12-07T02:50:23;63.90;;;28.60;;
6463;SDS011;3265;42.694;23.282;2022-12-07T02:52:51;48.27;;;25.70;;
6463;SDS011;3265;42.694;23.282;2022-12-07T02:55:18;51.37;;;25.37;;
6463;SDS011;3265;42.694;23.282;2022-12-07T02:57:52;50.83;;;25.07;;
6463;SDS011;3265;42.694;23.282;2022-12-07T03:00:31;42.23;;;22.17;;
6463;SDS011;3265;42.694;23.282;2022-12-07T03:03:09;46.77;;;22.77;;
6463;SDS011;3265;42.694;23.282;2022-12-07T03:08:30;50.10;;;24.63;;
6463;SDS011;3265;42.694;23.282;2022-12-07T03:11:04;44.93;;;24.17;;
6463;SDS011;3265;42.694;23.282;2022-12-07T03:13:36;49.20;;;23.57;;
6463;SDS011;3265;42.694;23.282;2022-12-07T03:16:10;45.97;;;24.27;;
6463;SDS011;3265;42.694;23.282;2022-12-07T03:18:43;49.30;;;25.73;;
6463;SDS011;3265;42.694;23.282;2022-12-07T03:21:15;49.27;;;26.23;;
6463;SDS011;3265;42.694;23.282;2022-12-07T03:23:45;54.83;;;27.90;;
6463;SDS011;3265;42.694;23.282;2022-12-07T03:26:16;51.00;;;26.93;;
6463;SDS011;3265;42.694;23.282;2022-12-07T03:28:50;55.67;;;26.90;;
6463;SDS011;3265;42.694;23.282;2022-12-07T03:31:21;52.53;;;27.83;;
6463;SDS011;3265;42.694;23.282;2022-12-07T03:33:53;57.27;;;28.97;;
6463;SDS011;3265;42.694;23.282;2022-12-07T03:36:25;55.30;;;28.33;;
6463;SDS011;3265;42.694;23.282;2022-12-07T03:39:00;54.43;;;27.80;;
6463;SDS011;3265;42.694;23.282;2022-12-07T03:41:33;48.47;;;26.13;;
6463;SDS011;3265;42.694;23.282;2022-12-07T03:44:02;54.47;;;26.63;;
6463;SDS011;3265;42.694;23.282;2022-12-07T03:46:34;54.97;;;27.27;;
6463;SDS011;3265;42.694;23.282;2022-12-07T03:49:08;67.17;;;32.53;;
6463;SDS011;3265;42.694;23.282;2022-12-07T03:51:43;74.23;;;34.53;;
6463;SDS011;3265;42.694;23.282;2022-12-07T03:54:17;68.77;;;34.30;;
6463;SDS011;3265;42.694;23.282;2022-12-07T03:56:49;68.67;;;32.70;;
6463;SDS011;3265;42.694;23.282;2022-12-07T03:59:18;57.57;;;29.57;;
6463;SDS011;3265;42.694;23.282;2022-12-07T04:01:52;48.93;;;26.73;;
6463;SDS011;3265;42.694;23.282;2022-12-07T04:04:21;52.53;;;27.57;;
6463;SDS011;3265;42.694;23.282;2022-12-07T04:06:48;57.43;;;28.27;;
6463;SDS011;3265;42.694;23.282;2022-12-07T04:09:14;59.40;;;26.80;;
6463;SDS011;3265;42.694;23.282;2022-12-07T04:11:41;47.00;;;23.00;;
6463;SDS011;3265;42.694;23.282;2022-12-07T04:14:08;51.87;;;26.67;;
6463;SDS011;3265;42.694;23.282;2022-12-07T04:16:44;50.50;;;27.00;;
6463;SDS011;3265;42.694;23.282;2022-12-07T04:19:13;54.80;;;26.37;;
6463;SDS011;3265;42.694;23.282;2022-12-07T04:21:40;53.03;;;27.33;;
6463;SDS011;3265;42.694;23.282;2022-12-07T04:24:07;56.80;;;27.87;;
6463;SDS011;3265;42.694;23.282;2022-12-07T04:26:34;54.40;;;28.83;;
6463;SDS011;3265;42.694;23.282;2022-12-07T04:29:01;55.67;;;26.73;;
6463;SDS011;3265;42.694;23.282;2022-12-07T04:31:28;53.40;;;29.67;;
6463;SDS011;3265;42.694;23.282;2022-12-07T04:33:54;78.00;;;40.17;;
6463;SDS011;3265;42.694;23.282;2022-12-07T04:36:23;85.50;;;46.27;;
6463;SDS011;3265;42.694;23.282;2022-12-07T04:38:50;90.87;;;48.47;;
6463;SDS011;3265;42.694;23.282;2022-12-07T04:41:19;84.43;;;46.17;;
6463;SDS011;3265;42.694;23.282;2022-12-07T04:43:52;84.20;;;44.17;;
6463;SDS011;3265;42.694;23.282;2022-12-07T04:46:19;79.50;;;42.60;;
6463;SDS011;3265;42.694;23.282;2022-12-07T04:48:46;80.17;;;39.00;;
6463;SDS011;3265;42.694;23.282;2022-12-07T04:51:13;68.43;;;34.80;;
6463;SDS011;3265;42.694;23.282;2022-12-07T04:53:42;64.23;;;33.57;;
6463;SDS011;3265;42.694;23.282;2022-12-07T04:56:08;60.37;;;32.57;;
6463;SDS011;3265;42.694;23.282;2022-12-07T04:58:35;73.23;;;33.67;;
6463;SDS011;3265;42.694;23.282;2022-12-07T05:01:02;73.63;;;36.73;;
6463;SDS011;3265;42.694;23.282;2022-12-07T05:03:29;73.37;;;39.83;;
6463;SDS011;3265;42.694;23.282;2022-12-07T05:05:56;74.57;;;38.70;;
6463;SDS011;3265;42.694;23.282;2022-12-07T05:08:22;80.13;;;40.33;;
6463;SDS011;3265;42.694;23.282;2022-12-07T05:10:51;75.90;;;38.70;;
6463;SDS011;3265;42.694;23.282;2022-12-07T05:13:17;70.40;;;35.30;;
6463;SDS011;3265;42.694;23.282;2022-12-07T05:15:44;68.77;;;33.67;;
6463;SDS011;3265;42.694;23.282;2022-12-07T05:18:12;69.30;;;34.67;;
6463;SDS011;3265;42.694;23.282;2022-12-07T05:20:39;66.47;;;33.07;;
6463;SDS011;3265;42.694;23.282;2022-12-07T05:23:07;74.60;;;36.33;;
6463;SDS011;3265;42.694;23.282;2022-12-07T05:25:34;86.37;;;39.63;;
6463;SDS011;3265;42.694;23.282;2022-12-07T05:28:03;83.10;;;41.47;;
6463;SDS011;3265;42.694;23.282;2022-12-07T05:30:30;85.63;;;39.47;;
6463;SDS011;3265;42.694;23.282;2022-12-07T05:32:58;80.13;;;41.30;;
6463;SDS011;3265;42.694;23.282;2022-12-07T05:35:25;72.50;;;38.80;;
6463;SDS011;3265;42.694;23.282;2022-12-07T05:37:52;72.60;;;38.67;;
6463;SDS011;3265;42.694;23.282;2022-12-07T05:40:20;81.00;;;41.50;;
6463;SDS011;3265;42.694;23.282;2022-12-07T05:42:47;94.50;;;41.53;;
6463;SDS011;3265;42.694;23.282;2022-12-07T05:45:15;83.63;;;40.70;;
6463;SDS011;3265;42.694;23.282;2022-12-07T05:47:42;82.50;;;42.07;;
6463;SDS011;3265;42.694;23.282;2022-12-07T05:50:08;92.50;;;44.07;;
6463;SDS011;3265;42.694;23.282;2022-12-07T05:52:35;95.07;;;43.43;;
6463;SDS011;3265;42.694;23.282;2022-12-07T05:55:02;91.70;;;44.80;;
6463;SDS011;3265;42.694;23.282;2022-12-07T05:57:29;89.80;;;45.47;;
6463;SDS011;3265;42.694;23.282;2022-12-07T05:59:56;91.33;;;46.03;;
6463;SDS011;3265;42.694;23.282;2022-12-07T06:02:23;90.80;;;43.07;;
6463;SDS011;3265;42.694;23.282;2022-12-07T06:04:50;87.47;;;39.33;;
6463;SDS011;3265;42.694;23.282;2022-12-07T06:07:17;72.90;;;37.03;;
6463;SDS011;3265;42.694;23.282;2022-12-07T06:09:44;68.33;;;35.13;;
6463;SDS011;3265;42.694;23.282;2022-12-07T06:12:11;61.10;;;32.40;;
6463;SDS011;3265;42.694;23.282;2022-12-07T06:14:56;65.40;;;30.27;;
6463;SDS011;3265;42.694;23.282;2022-12-07T06:17:25;65.53;;;30.83;;
6463;SDS011;3265;42.694;23.282;2022-12-07T06:19:52;59.97;;;30.77;;
6463;SDS011;3265;42.694;23.282;2022-12-07T06:22:19;69.33;;;35.17;;
6463;SDS011;3265;42.694;23.282;2022-12-07T06:24:46;69.40;;;34.87;;
6463;SDS011;3265;42.694;23.282;2022-12-07T06:27:13;65.73;;;34.17;;
6463;SDS011;3265;42.694;23.282;2022-12-07T06:29:40;69.10;;;35.93;;
6463;SDS011;3265;42.694;23.282;2022-12-07T06:32:07;72.63;;;37.33;;
6463;SDS011;3265;42.694;23.282;2022-12-07T06:34:35;86.43;;;40.20;;
6463;SDS011;3265;42.694;23.282;2022-12-07T06:37:02;97.30;;;46.80;;
6463;SDS011;3265;42.694;23.282;2022-12-07T06:39:29;129.67;;;62.80;;
6463;SDS011;3265;42.694;23.282;2022-12-07T06:41:57;125.33;;;64.17;;
6463;SDS011;3265;42.694;23.282;2022-12-07T06:44:24;140.83;;;68.80;;
6463;SDS011;3265;42.694;23.282;2022-12-07T06:46:51;137.07;;;68.10;;
6463;SDS011;3265;42.694;23.282;2022-12-07T06:49:19;126.50;;;63.60;;
6463;SDS011;3265;42.694;23.282;2022-12-07T06:51:47;121.33;;;61.53;;
6463;SDS011;3265;42.694;23.282;2022-12-07T06:54:14;113.97;;;54.43;;
6463;SDS011;3265;42.694;23.282;2022-12-07T06:56:42;98.03;;;47.40;;
6463;SDS011;3265;42.694;23.282;2022-12-07T06:59:09;75.67;;;37.57;;
6463;SDS011;3265;42.694;23.282;2022-12-07T07:01:36;73.50;;;35.17;;
6463;SDS011;3265;42.694;23.282;2022-12-07T07:04:03;68.37;;;32.80;;
6463;SDS011;3265;42.694;23.282;2022-12-07T07:06:30;66.87;;;29.80;;
6463;SDS011;3265;42.694;23.282;2022-12-07T07:08:58;60.33;;;27.10;;
6463;SDS011;3265;42.694;23.282;2022-12-07T07:11:25;60.57;;;28.47;;
6463;SDS011;3265;42.694;23.282;2022-12-07T07:13:52;61.57;;;31.33;;
6463;SDS011;3265;42.694;23.282;2022-12-07T07:16:22;69.53;;;34.13;;
6463;SDS011;3265;42.694;23.282;2022-12-07T07:18:49;59.33;;;31.47;;
6463;SDS011;3265;42.694;23.282;2022-12-07T07:21:16;62.87;;;31.53;;
6463;SDS011;3265;42.694;23.282;2022-12-07T07:23:43;59.00;;;30.37;;
6463;SDS011;3265;42.694;23.282;2022-12-07T07:26:11;59.57;;;30.43;;
6463;SDS011;3265;42.694;23.282;2022-12-07T07:28:38;74.93;;;34.57;;
6463;SDS011;3265;42.694;23.282;2022-12-07T07:31:05;83.53;;;40.73;;
6463;SDS011;3265;42.694;23.282;2022-12-07T07:33:31;72.57;;;39.23;;
6463;SDS011;3265;42.694;23.282;2022-12-07T07:35:58;77.80;;;40.77;;
6463;SDS011;3265;42.694;23.282;2022-12-07T07:38:25;80.50;;;41.10;;
6463;SDS011;3265;42.694;23.282;2022-12-07T07:40:52;69.97;;;34.70;;
6463;SDS011;3265;42.694;23.282;2022-12-07T07:43:20;67.20;;;33.47;;
6463;SDS011;3265;42.694;23.282;2022-12-07T07:45:47;57.43;;;28.53;;
6463;SDS011;3265;42.694;23.282;2022-12-07T07:48:14;66.73;;;30.50;;
6463;SDS011;3265;42.694;23.282;2022-12-07T07:50:41;61.97;;;31.60;;
6463;SDS011;3265;42.694;23.282;2022-12-07T07:53:08;76.07;;;35.40;;
6463;SDS011;3265;42.694;23.282;2022-12-07T07:55:34;81.37;;;38.00;;
6463;SDS011;3265;42.694;23.282;2022-12-07T07:58:01;77.30;;;37.10;;
6463;SDS011;3265;42.694;23.282;2022-12-07T08:00:29;77.03;;;37.97;;
6463;SDS011;3265;42.694;23.282;2022-12-07T08:02:56;80.60;;;38.93;;
6463;SDS011;3265;42.694;23.282;2022-12-07T08:05:24;88.37;;;39.70;;
6463;SDS011;3265;42.694;23.282;2022-12-07T08:07:51;75.90;;;36.93;;
6463;SDS011;3265;42.694;23.282;2022-12-07T08:10:17;69.13;;;34.97;;
6463;SDS011;3265;42.694;23.282;2022-12-07T08:12:44;68.57;;;31.73;;
6463;SDS011;3265;42.694;23.282;2022-12-07T08:15:30;61.00;;;29.23;;
6463;SDS011;3265;42.694;23.282;2022-12-07T08:17:57;53.87;;;26.60;;
6463;SDS011;3265;42.694;23.282;2022-12-07T08:20:24;54.47;;;28.70;;
6463;SDS011;3265;42.694;23.282;2022-12-07T08:22:51;52.83;;;28.23;;
6463;SDS011;3265;42.694;23.282;2022-12-07T08:25:18;61.47;;;28.77;;
6463;SDS011;3265;42.694;23.282;2022-12-07T08:27:45;63.67;;;30.87;;
6463;SDS011;3265;42.694;23.282;2022-12-07T08:30:13;62.50;;;30.17;;
6463;SDS011;3265;42.694;23.282;2022-12-07T08:32:41;65.23;;;32.80;;
6463;SDS011;3265;42.694;23.282;2022-12-07T08:35:08;69.60;;;33.83;;
6463;SDS011;3265;42.694;23.282;2022-12-07T08:37:35;71.33;;;34.03;;
6463;SDS011;3265;42.694;23.282;2022-12-07T08:40:03;66.97;;;32.90;;
6463;SDS011;3265;42.694;23.282;2022-12-07T08:42:30;69.30;;;35.47;;
6463;SDS011;3265;42.694;23.282;2022-12-07T08:45:03;70.27;;;32.70;;
6463;SDS011;3265;42.694;23.282;2022-12-07T08:47:31;66.30;;;34.50;;
6463;SDS011;3265;42.694;23.282;2022-12-07T08:50:00;76.23;;;36.80;;
6463;SDS011;3265;42.694;23.282;2022-12-07T08:52:29;76.67;;;36.90;;
6463;SDS011;3265;42.694;23.282;2022-12-07T08:54:56;67.93;;;34.20;;
6463;SDS011;3265;42.694;23.282;2022-12-07T08:57:24;79.87;;;36.37;;
6463;SDS011;3265;42.694;23.282;2022-12-07T08:59:53;71.77;;;35.20;;
6463;SDS011;3265;42.694;23.282;2022-12-07T09:02:20;72.87;;;36.23;;
6463;SDS011;3265;42.694;23.282;2022-12-07T09:04:47;72.93;;;37.40;;
6463;SDS011;3265;42.694;23.282;2022-12-07T09:07:15;73.33;;;35.73;;
6463;SDS011;3265;42.694;23.282;2022-12-07T09:09:42;68.07;;;35.33;;
6463;SDS011;3265;42.694;23.282;2022-12-07T09:12:09;77.73;;;37.13;;
6463;SDS011;3265;42.694;23.282;2022-12-07T09:14:36;74.50;;;35.00;;
6463;SDS011;3265;42.694;23.282;2022-12-07T09:17:08;69.80;;;35.30;;
6463;SDS011;3265;42.694;23.282;2022-12-07T09:19:36;77.80;;;35.10;;
6463;SDS011;3265;42.694;23.282;2022-12-07T09:22:03;75.83;;;35.97;;
6463;SDS011;3265;42.694;23.282;2022-12-07T09:24:32;70.63;;;35.40;;
6463;SDS011;3265;42.694;23.282;2022-12-07T09:26:59;70.63;;;34.33;;
6463;SDS011;3265;42.694;23.282;2022-12-07T09:29:26;69.70;;;35.17;;
6463;SDS011;3265;42.694;23.282;2022-12-07T09:31:53;78.40;;;34.47;;
6463;SDS011;3265;42.694;23.282;2022-12-07T09:34:20;73.13;;;34.73;;
6463;SDS011;3265;42.694;23.282;2022-12-07T09:36:47;72.50;;;34.53;;
6463;SDS011;3265;42.694;23.282;2022-12-07T09:39:14;86.47;;;36.43;;
6463;SDS011;3265;42.694;23.282;2022-12-07T09:41:43;73.57;;;35.90;;
6463;SDS011;3265;42.694;23.282;2022-12-07T09:44:12;77.47;;;34.67;;
6463;SDS011;3265;42.694;23.282;2022-12-07T09:46:43;72.33;;;35.13;;
6463;SDS011;3265;42.694;23.282;2022-12-07T09:49:12;85.03;;;36.33;;
6463;SDS011;3265;42.694;23.282;2022-12-07T09:51:42;68.40;;;34.87;;
6463;SDS011;3265;42.694;23.282;2022-12-07T09:54:11;71.50;;;34.83;;
6463;SDS011;3265;42.694;23.282;2022-12-07T09:56:39;60.93;;;33.23;;
6463;SDS011;3265;42.694;23.282;2022-12-07T09:59:12;74.73;;;34.13;;
6463;SDS011;3265;42.694;23.282;2022-12-07T10:01:43;71.53;;;34.37;;
6463;SDS011;3265;42.694;23.282;2022-12-07T10:04:13;58.57;;;31.77;;
6463;SDS011;3265;42.694;23.282;2022-12-07T10:06:42;64.80;;;31.67;;
6463;SDS011;3265;42.694;23.282;2022-12-07T10:09:11;72.00;;;32.80;;
6463;SDS011;3265;42.694;23.282;2022-12-07T10:14:31;65.13;;;28.33;;
6463;SDS011;3265;42.694;23.282;2022-12-07T10:17:00;54.70;;;29.30;;
6463;SDS011;3265;42.694;23.282;2022-12-07T10:19:27;50.37;;;26.87;;
6463;SDS011;3265;42.694;23.282;2022-12-07T10:22:00;49.20;;;25.40;;
6463;SDS011;3265;42.694;23.282;2022-12-07T10:24:31;55.57;;;25.33;;
6463;SDS011;3265;42.694;23.282;2022-12-07T10:26:58;45.83;;;23.67;;
6463;SDS011;3265;42.694;23.282;2022-12-07T10:29:28;43.07;;;23.47;;
6463;SDS011;3265;42.694;23.282;2022-12-07T10:31:59;45.33;;;22.87;;
6463;SDS011;3265;42.694;23.282;2022-12-07T10:34:28;45.73;;;23.27;;
6463;SDS011;3265;42.694;23.282;2022-12-07T10:37:07;41.60;;;21.97;;
6463;SDS011;3265;42.694;23.282;2022-12-07T10:39:42;44.43;;;23.30;;
6463;SDS011;3265;42.694;23.282;2022-12-07T10:42:16;48.80;;;22.67;;
6463;SDS011;3265;42.694;23.282;2022-12-07T10:44:44;42.53;;;22.87;;
6463;SDS011;3265;42.694;23.282;2022-12-07T10:47:21;39.20;;;22.13;;
6463;SDS011;3265;42.694;23.282;2022-12-07T10:52:57;47.23;;;23.80;;
6463;SDS011;3265;42.694;23.282;2022-12-07T10:55:34;42.87;;;23.90;;
6463;SDS011;3265;42.694;23.282;2022-12-07T10:58:23;57.90;;;25.23;;
6463;SDS011;3265;42.694;23.282;2022-12-07T11:01:03;49.50;;;23.47;;
6463;SDS011;3265;42.694;23.282;2022-12-07T11:03:47;46.50;;;22.67;;
6463;SDS011;3265;42.694;23.282;2022-12-07T11:06:27;45.97;;;22.87;;
6463;SDS011;3265;42.694;23.282;2022-12-07T11:09:04;50.93;;;25.00;;
6463;SDS011;3265;42.694;23.282;2022-12-07T11:11:53;50.93;;;23.10;;
6463;SDS011;3265;42.694;23.282;2022-12-07T11:14:28;45.60;;;24.50;;
6463;SDS011;3265;42.694;23.282;2022-12-07T11:17:04;45.97;;;24.07;;
6463;SDS011;3265;42.694;23.282;2022-12-07T11:19:52;45.63;;;24.93;;
6463;SDS011;3265;42.694;23.282;2022-12-07T11:22:29;46.33;;;24.00;;
6463;SDS011;3265;42.694;23.282;2022-12-07T11:25:14;44.43;;;23.33;;
6463;SDS011;3265;42.694;23.282;2022-12-07T11:27:47;41.70;;;23.60;;
6463;SDS011;3265;42.694;23.282;2022-12-07T11:30:22;44.07;;;22.10;;
6463;SDS011;3265;42.694;23.282;2022-12-07T11:32:59;37.73;;;21.40;;
6463;SDS011;3265;42.694;23.282;2022-12-07T11:35:45;42.90;;;21.37;;
6463;SDS011;3265;42.694;23.282;2022-12-07T11:38:30;37.53;;;20.00;;
6463;SDS011;3265;42.694;23.282;2022-12-07T11:41:03;32.80;;;18.73;;
6463;SDS011;3265;42.694;23.282;2022-12-07T11:43:42;38.67;;;19.93;;
6463;SDS011;3265;42.694;23.282;2022-12-07T11:46:47;38.17;;;18.27;;
6463;SDS011;3265;42.694;23.282;2022-12-07T11:49:19;30.92;;;17.42;;
6463;SDS011;3265;42.694;23.282;2022-12-07T11:51:54;30.20;;;17.65;;
6463;SDS011;3265;42.694;23.282;2022-12-07T11:54:28;35.33;;;19.70;;
6463;SDS011;3265;42.694;23.282;2022-12-07T11:57:09;32.75;;;18.67;;
6463;SDS011;3265;42.694;23.282;2022-12-07T11:59:45;25.65;;;16.98;;
6463;SDS011;3265;42.694;23.282;2022-12-07T12:02:16;33.78;;;17.02;;
6463;SDS011;3265;42.694;23.282;2022-12-07T12:04:50;37.05;;;17.50;;
6463;SDS011;3265;42.694;23.282;2022-12-07T12:07:23;29.77;;;17.50;;
6463;SDS011;3265;42.694;23.282;2022-12-07T12:09:53;29.45;;;17.20;;
6463;SDS011;3265;42.694;23.282;2022-12-07T12:12:32;33.13;;;17.75;;
6463;SDS011;3265;42.694;23.282;2022-12-07T12:15:23;31.67;;;17.52;;
6463;SDS011;3265;42.694;23.282;2022-12-07T12:18:06;34.60;;;19.50;;
6463;SDS011;3265;42.694;23.282;2022-12-07T12:20:55;34.00;;;18.85;;
6463;SDS011;3265;42.694;23.282;2022-12-07T12:23:32;32.63;;;18.10;;
6463;SDS011;3265;42.694;23.282;2022-12-07T12:26:08;37.75;;;20.40;;
6463;SDS011;3265;42.694;23.282;2022-12-07T12:28:49;36.05;;;19.85;;
6463;SDS011;3265;42.694;23.282;2022-12-07T12:31:29;41.13;;;20.15;;
6463;SDS011;3265;42.694;23.282;2022-12-07T12:34:10;38.72;;;21.27;;
6463;SDS011;3265;42.694;23.282;2022-12-07T12:37:13;31.37;;;19.43;;
6463;SDS011;3265;42.694;23.282;2022-12-07T12:49:30;31.80;;;17.43;;
6463;SDS011;3265;42.694;23.282;2022-12-07T12:55:18;32.05;;;16.67;;
6463;SDS011;3265;42.694;23.282;2022-12-07T13:04:00;32.00;;;17.33;;
6463;SDS011;3265;42.694;23.282;2022-12-07T13:06:34;25.77;;;14.27;;
6463;SDS011;3265;42.694;23.282;2022-12-07T13:09:04;25.67;;;13.07;;
6463;SDS011;3265;42.694;23.282;2022-12-07T13:11:44;21.63;;;13.73;;
6463;SDS011;3265;42.694;23.282;2022-12-07T13:23:24;29.83;;;15.85;;
6463;SDS011;3265;42.694;23.282;2022-12-07T13:25:59;33.15;;;16.10;;
6463;SDS011;3265;42.694;23.282;2022-12-07T13:28:35;33.50;;;15.38;;
6463;SDS011;3265;42.694;23.282;2022-12-07T13:31:12;34.05;;;15.20;;
6463;SDS011;3265;42.694;23.282;2022-12-07T13:33:43;31.60;;;14.43;;
6463;SDS011;3265;42.694;23.282;2022-12-07T13:36:14;28.45;;;15.27;;
6463;SDS011;3265;42.694;23.282;2022-12-07T13:38:51;25.95;;;14.05;;
6463;SDS011;3265;42.694;23.282;2022-12-07T13:41:20;31.83;;;14.77;;
6463;SDS011;3265;42.694;23.282;2022-12-07T13:43:49;27.58;;;14.80;;
6463;SDS011;3265;42.694;23.282;2022-12-07T13:46:18;28.80;;;14.63;;
6463;SDS011;3265;42.694;23.282;2022-12-07T13:48:50;35.20;;;18.43;;
6463;SDS011;3265;42.694;23.282;2022-12-07T13:51:18;30.97;;;16.90;;
6463;SDS011;3265;42.694;23.282;2022-12-07T13:53:48;31.00;;;16.37;;
6463;SDS011;3265;42.694;23.282;2022-12-07T13:56:17;30.87;;;16.40;;
6463;SDS011;3265;42.694;23.282;2022-12-07T13:58:44;28.83;;;16.27;;
6463;SDS011;3265;42.694;23.282;2022-12-07T14:01:11;29.07;;;16.87;;
6463;SDS011;3265;42.694;23.282;2022-12-07T14:03:38;32.07;;;16.93;;
6463;SDS011;3265;42.694;23.282;2022-12-07T14:06:20;36.20;;;16.13;;
6463;SDS011;3265;42.694;23.282;2022-12-07T14:11:36;34.17;;;16.83;;
6463;SDS011;3265;42.694;23.282;2022-12-07T14:14:04;34.40;;;15.80;;
6463;SDS011;3265;42.694;23.282;2022-12-07T14:16:32;31.07;;;17.03;;
6463;SDS011;3265;42.694;23.282;2022-12-07T14:19:02;32.53;;;17.33;;
6463;SDS011;3265;42.694;23.282;2022-12-07T14:21:31;33.67;;;17.13;;
6463;SDS011;3265;42.694;23.282;2022-12-07T14:24:04;31.33;;;16.43;;
6463;SDS011;3265;42.694;23.282;2022-12-07T14:26:38;26.27;;;15.90;;
6463;SDS011;3265;42.694;23.282;2022-12-07T14:29:22;30.50;;;16.17;;
6463;SDS011;3265;42.694;23.282;2022-12-07T14:31:56;33.43;;;15.27;;
6463;SDS011;3265;42.694;23.282;2022-12-07T14:34:24;25.17;;;15.43;;
6463;SDS011;3265;42.694;23.282;2022-12-07T14:36:51;25.33;;;14.63;;
6463;SDS011;3265;42.694;23.282;2022-12-07T14:39:19;26.10;;;14.87;;
6463;SDS011;3265;42.694;23.282;2022-12-07T14:41:47;32.10;;;15.50;;
6463;SDS011;3265;42.694;23.282;2022-12-07T14:44:17;33.90;;;15.33;;
6463;SDS011;3265;42.694;23.282;2022-12-07T14:46:45;32.53;;;15.57;;
6463;SDS011;3265;42.694;23.282;2022-12-07T14:49:12;37.30;;;16.50;;
6463;SDS011;3265;42.694;23.282;2022-12-07T14:51:39;41.07;;;16.50;;
6463;SDS011;3265;42.694;23.282;2022-12-07T14:54:09;32.70;;;16.43;;
6463;SDS011;3265;42.694;23.282;2022-12-07T14:56:42;34.13;;;17.40;;
6463;SDS011;3265;42.694;23.282;2022-12-07T14:59:11;45.50;;;18.50;;
6463;SDS011;3265;42.694;23.282;2022-12-07T15:01:44;48.77;;;18.43;;
6463;SDS011;3265;42.694;23.282;2022-12-07T15:04:32;42.17;;;16.30;;
6463;SDS011;3265;42.694;23.282;2022-12-07T15:07:00;55.33;;;17.83;;
6463;SDS011;3265;42.694;23.282;2022-12-07T15:09:28;54.23;;;19.80;;
6463;SDS011;3265;42.694;23.282;2022-12-07T15:11:55;43.10;;;18.13;;
6463;SDS011;3265;42.694;23.282;2022-12-07T15:14:23;42.00;;;16.53;;
6463;SDS011;3265;42.694;23.282;2022-12-07T15:16:50;45.90;;;19.07;;
6463;SDS011;3265;42.694;23.282;2022-12-07T15:19:17;53.03;;;18.70;;
6463;SDS011;3265;42.694;23.282;2022-12-07T15:21:47;53.33;;;19.23;;
6463;SDS011;3265;42.694;23.282;2022-12-07T15:24:15;66.37;;;23.47;;
6463;SDS011;3265;42.694;23.282;2022-12-07T15:26:42;125.50;;;61.20;;
6463;SDS011;3265;42.694;23.282;2022-12-07T15:29:09;361.37;;;184.70;;
6463;SDS011;3265;42.694;23.282;2022-12-07T15:31:41;331.77;;;161.73;;